CFG3654 EDDL-LIMJ
Flight info
| Callsign | CFG3654 |
|---|---|
| Flight time | 1h 13m |
| Altitude | 35000 |
| Route | DODEN1T DODEN Y852 NATOR DCT TRA DCT RIPUS DCT GERSA DCT SOSON DCT ODINA DCT SRN/N0365F190 M858 VOG |
| Aircraft | A321/M-SDE3FGIJ1LORVWXYZ/LB1 |
Departure
| Time | 2026-04-15 13:52 |
|---|---|
| Airport | Düsseldorf Airport (EDDL) |
Arrival
| Time | 2026-04-15 15:06 |
|---|---|
| Airport | Genoa Cristoforo Colombo Airport (LIMJ) |
| Time | Latitude | Longitude | Altitude | Speed | Heading |
|---|---|---|---|---|---|
| 2026-04-15 13:21 | 51.28542 | 6.77201 | 124 ft | 0 kts | 322° |
| 2026-04-15 13:43 | 51.28528 | 6.77217 | 125 ft | 4 kts | 322° |
| 2026-04-15 13:43 | 51.28507 | 6.77243 | 129 ft | 4 kts | 338° |
| 2026-04-15 13:43 | 51.28491 | 6.77241 | 126 ft | 2 kts | 52° |
| 2026-04-15 13:44 | 51.28478 | 6.77213 | 124 ft | 3 kts | 52° |
| 2026-04-15 13:44 | 51.28475 | 6.77207 | 124 ft | 0 kts | 52° |
| 2026-04-15 13:47 | 51.28663 | 6.77651 | 127 ft | 13 kts | 89° |
| 2026-04-15 13:47 | 51.28687 | 6.77775 | 127 ft | 11 kts | 53° |
| 2026-04-15 13:47 | 51.28738 | 6.77860 | 127 ft | 11 kts | 18° |
| 2026-04-15 13:48 | 51.28802 | 6.77815 | 126 ft | 10 kts | 323° |
| 2026-04-15 13:48 | 51.28874 | 6.77728 | 124 ft | 15 kts | 323° |
| 2026-04-15 13:48 | 51.28954 | 6.77754 | 127 ft | 14 kts | 50° |
| 2026-04-15 13:48 | 51.29018 | 6.77887 | 128 ft | 15 kts | 53° |
| 2026-04-15 13:49 | 51.29077 | 6.78010 | 128 ft | 13 kts | 52° |
| 2026-04-15 13:49 | 51.29130 | 6.78122 | 133 ft | 14 kts | 52° |
| 2026-04-15 13:49 | 51.29188 | 6.78243 | 137 ft | 14 kts | 52° |
| 2026-04-15 13:49 | 51.29257 | 6.78386 | 144 ft | 16 kts | 52° |
| 2026-04-15 13:50 | 51.29324 | 6.78526 | 150 ft | 17 kts | 47° |
| 2026-04-15 13:50 | 51.29402 | 6.78570 | 152 ft | 10 kts | 358° |
| 2026-04-15 13:50 | 51.29477 | 6.78561 | 152 ft | 13 kts | 353° |
| 2026-04-15 13:50 | 51.29509 | 6.78454 | 150 ft | 13 kts | 246° |
| 2026-04-15 13:51 | 51.29476 | 6.78380 | 148 ft | 0 kts | 232° |
| 2026-04-15 13:51 | 51.29423 | 6.78269 | 145 ft | 42 kts | 232° |
| 2026-04-15 13:51 | 51.29101 | 6.77597 | 128 ft | 109 kts | 233° |
| 2026-04-15 13:52 | 51.28535 | 6.76414 | 135 ft | 156 kts | 232° |
| 2026-04-15 13:52 | 51.27888 | 6.75007 | 725 ft | 151 kts | 230° |
| 2026-04-15 13:52 | 51.27294 | 6.73613 | 1329 ft | 151 kts | 233° |
| 2026-04-15 13:52 | 51.26690 | 6.72230 | 1798 ft | 158 kts | 230° |
| 2026-04-15 13:53 | 51.25981 | 6.70746 | 2009 ft | 178 kts | 230° |
| 2026-04-15 13:53 | 51.25179 | 6.69083 | 2154 ft | 200 kts | 229° |
| 2026-04-15 13:53 | 51.24284 | 6.67222 | 2311 ft | 223 kts | 230° |
| 2026-04-15 13:53 | 51.23301 | 6.65189 | 2564 ft | 245 kts | 226° |
| 2026-04-15 13:54 | 51.21855 | 6.63690 | 3252 ft | 251 kts | 193° |
| 2026-04-15 13:54 | 51.20146 | 6.63731 | 4055 ft | 253 kts | 169° |
| 2026-04-15 13:54 | 51.18390 | 6.64197 | 4751 ft | 257 kts | 173° |
| 2026-04-15 13:54 | 51.16605 | 6.64486 | 5530 ft | 259 kts | 175° |
| 2026-04-15 13:55 | 51.14867 | 6.65261 | 6352 ft | 265 kts | 152° |
| 2026-04-15 13:55 | 51.13538 | 6.67325 | 7058 ft | 275 kts | 121° |
| 2026-04-15 13:55 | 51.13051 | 6.70283 | 7729 ft | 285 kts | 91° |
| 2026-04-15 13:55 | 51.13157 | 6.73463 | 8437 ft | 289 kts | 87° |
| 2026-04-15 13:56 | 51.13295 | 6.76686 | 9164 ft | 293 kts | 87° |
| 2026-04-15 13:56 | 51.13431 | 6.79903 | 9876 ft | 298 kts | 87° |
| 2026-04-15 13:56 | 51.13566 | 6.83223 | 10424 ft | 307 kts | 87° |
| 2026-04-15 13:56 | 51.13702 | 6.86721 | 10580 ft | 330 kts | 87° |
| 2026-04-15 13:57 | 51.13844 | 6.90496 | 10802 ft | 348 kts | 87° |
| 2026-04-15 13:57 | 51.13987 | 6.94378 | 11349 ft | 354 kts | 88° |
| 2026-04-15 13:57 | 51.14129 | 6.98326 | 11993 ft | 359 kts | 88° |
| 2026-04-15 13:57 | 51.14269 | 7.02308 | 12648 ft | 362 kts | 88° |
| 2026-04-15 13:58 | 51.14413 | 7.06343 | 13306 ft | 366 kts | 87° |
| 2026-04-15 13:58 | 51.14558 | 7.10416 | 13956 ft | 370 kts | 88° |
| 2026-04-15 13:58 | 51.14704 | 7.14465 | 14517 ft | 374 kts | 87° |
| 2026-04-15 13:58 | 51.14851 | 7.18626 | 15115 ft | 377 kts | 87° |
| 2026-04-15 13:59 | 51.14994 | 7.22815 | 15699 ft | 381 kts | 88° |
| 2026-04-15 13:59 | 51.15134 | 7.27044 | 16269 ft | 384 kts | 88° |
| 2026-04-15 13:59 | 51.15275 | 7.31315 | 16837 ft | 388 kts | 88° |
| 2026-04-15 13:59 | 51.15413 | 7.35618 | 17392 ft | 391 kts | 89° |
| 2026-04-15 14:00 | 51.15205 | 7.39941 | 17921 ft | 393 kts | 102° |
| 2026-04-15 14:00 | 51.14424 | 7.44111 | 18470 ft | 394 kts | 115° |
| 2026-04-15 14:00 | 51.13140 | 7.47900 | 18912 ft | 395 kts | 126° |
| 2026-04-15 14:00 | 51.11378 | 7.51259 | 19364 ft | 395 kts | 138° |
| 2026-04-15 14:01 | 51.07380 | 7.57357 | 20268 ft | 401 kts | 138° |
| 2026-04-15 14:01 | 51.05362 | 7.60426 | 20724 ft | 405 kts | 138° |
| 2026-04-15 14:01 | 51.03316 | 7.63531 | 21128 ft | 408 kts | 138° |
| 2026-04-15 14:02 | 51.01251 | 7.66658 | 21556 ft | 412 kts | 138° |
| 2026-04-15 14:02 | 50.99173 | 7.69807 | 21990 ft | 415 kts | 138° |
| 2026-04-15 14:02 | 50.97077 | 7.72899 | 22396 ft | 418 kts | 142° |
| 2026-04-15 14:02 | 50.94710 | 7.75574 | 22819 ft | 419 kts | 150° |
| 2026-04-15 14:03 | 50.92227 | 7.78019 | 23237 ft | 422 kts | 150° |
| 2026-04-15 14:03 | 50.89722 | 7.80482 | 23641 ft | 425 kts | 150° |
| 2026-04-15 14:03 | 50.87206 | 7.82954 | 23992 ft | 428 kts | 150° |
| 2026-04-15 14:03 | 50.84665 | 7.85451 | 24315 ft | 431 kts | 150° |
| 2026-04-15 14:04 | 50.82111 | 7.87957 | 24656 ft | 433 kts | 150° |
| 2026-04-15 14:04 | 50.79537 | 7.90483 | 25001 ft | 436 kts | 150° |
| 2026-04-15 14:04 | 50.76952 | 7.93014 | 25347 ft | 438 kts | 150° |
| 2026-04-15 14:04 | 50.74390 | 7.95518 | 25695 ft | 441 kts | 150° |
| 2026-04-15 14:05 | 50.71780 | 7.98068 | 26023 ft | 443 kts | 150° |
| 2026-04-15 14:05 | 50.69153 | 8.00630 | 26355 ft | 445 kts | 150° |
| 2026-04-15 14:05 | 50.66509 | 8.03206 | 26681 ft | 448 kts | 150° |
| 2026-04-15 14:05 | 50.63840 | 8.05790 | 27008 ft | 450 kts | 152° |
| 2026-04-15 14:06 | 50.61033 | 8.07941 | 27333 ft | 450 kts | 161° |
| 2026-04-15 14:06 | 50.58044 | 8.09362 | 27633 ft | 449 kts | 171° |
| 2026-04-15 14:06 | 50.54948 | 8.10036 | 27936 ft | 449 kts | 178° |
| 2026-04-15 14:06 | 50.51871 | 8.10432 | 28230 ft | 452 kts | 178° |
| 2026-04-15 14:07 | 50.48723 | 8.10840 | 28536 ft | 454 kts | 178° |
| 2026-04-15 14:07 | 50.45574 | 8.11252 | 28828 ft | 456 kts | 178° |
| 2026-04-15 14:07 | 50.42398 | 8.11670 | 29113 ft | 459 kts | 178° |
| 2026-04-15 14:07 | 50.39210 | 8.12090 | 29386 ft | 461 kts | 178° |
| 2026-04-15 14:08 | 50.36014 | 8.12510 | 29637 ft | 463 kts | 177° |
| 2026-04-15 14:08 | 50.32790 | 8.12931 | 29898 ft | 465 kts | 177° |
| 2026-04-15 14:08 | 50.29556 | 8.13349 | 30162 ft | 468 kts | 178° |
| 2026-04-15 14:08 | 50.26309 | 8.13763 | 30400 ft | 470 kts | 178° |
| 2026-04-15 14:09 | 50.23082 | 8.14173 | 30625 ft | 472 kts | 178° |
| 2026-04-15 14:09 | 50.19802 | 8.14592 | 30867 ft | 474 kts | 178° |
| 2026-04-15 14:09 | 50.16525 | 8.15017 | 31179 ft | 473 kts | 177° |
| 2026-04-15 14:09 | 50.13244 | 8.15449 | 31512 ft | 473 kts | 177° |
| 2026-04-15 14:10 | 50.09966 | 8.15890 | 31836 ft | 472 kts | 177° |
| 2026-04-15 14:10 | 50.06693 | 8.16345 | 32164 ft | 472 kts | 177° |
| 2026-04-15 14:10 | 50.03412 | 8.16812 | 32496 ft | 472 kts | 177° |
| 2026-04-15 14:10 | 50.00151 | 8.17281 | 32836 ft | 471 kts | 177° |
| 2026-04-15 14:11 | 49.96935 | 8.17740 | 33171 ft | 471 kts | 177° |
| 2026-04-15 14:11 | 49.93667 | 8.18201 | 33510 ft | 470 kts | 177° |
| 2026-04-15 14:11 | 49.90412 | 8.18651 | 33837 ft | 470 kts | 177° |
| 2026-04-15 14:11 | 49.87154 | 8.19093 | 34118 ft | 470 kts | 177° |
| 2026-04-15 14:12 | 49.83888 | 8.19536 | 34305 ft | 472 kts | 177° |
| 2026-04-15 14:12 | 49.80614 | 8.19984 | 34538 ft | 473 kts | 177° |
| 2026-04-15 14:12 | 49.77341 | 8.20436 | 34793 ft | 473 kts | 177° |
| 2026-04-15 14:12 | 49.74065 | 8.20889 | 35061 ft | 472 kts | 177° |
| 2026-04-15 14:13 | 49.70793 | 8.21340 | 35176 ft | 472 kts | 177° |
| 2026-04-15 14:13 | 49.64349 | 8.22232 | 35199 ft | 466 kts | 177° |
| 2026-04-15 14:14 | 49.57889 | 8.23117 | 35201 ft | 466 kts | 177° |
| 2026-04-15 14:14 | 49.51437 | 8.23993 | 35201 ft | 465 kts | 177° |
| 2026-04-15 14:15 | 49.44978 | 8.24870 | 35185 ft | 465 kts | 177° |
| 2026-04-15 14:15 | 49.38588 | 8.25745 | 35192 ft | 465 kts | 176° |
| 2026-04-15 14:16 | 49.32121 | 8.26622 | 35194 ft | 465 kts | 177° |
| 2026-04-15 14:16 | 49.25672 | 8.27488 | 35199 ft | 465 kts | 177° |
| 2026-04-15 14:17 | 49.19228 | 8.28360 | 35190 ft | 466 kts | 176° |
| 2026-04-15 14:17 | 49.12768 | 8.29225 | 35191 ft | 466 kts | 176° |
| 2026-04-15 14:18 | 49.06348 | 8.30078 | 35196 ft | 466 kts | 176° |
| 2026-04-15 14:18 | 48.99882 | 8.30945 | 35191 ft | 466 kts | 176° |
| 2026-04-15 14:19 | 48.93404 | 8.31430 | 35200 ft | 465 kts | 181° |
| 2026-04-15 14:19 | 48.86937 | 8.31392 | 35207 ft | 465 kts | 182° |
| 2026-04-15 14:20 | 48.80456 | 8.31305 | 35215 ft | 465 kts | 182° |
| 2026-04-15 14:20 | 48.74022 | 8.31350 | 35200 ft | 466 kts | 181° |
| 2026-04-15 14:21 | 48.67537 | 8.31454 | 35204 ft | 466 kts | 181° |
| 2026-04-15 14:21 | 48.61058 | 8.31558 | 35205 ft | 466 kts | 181° |
| 2026-04-15 14:22 | 48.54566 | 8.31646 | 35201 ft | 466 kts | 181° |
| 2026-04-15 14:22 | 48.48128 | 8.31738 | 35204 ft | 466 kts | 181° |
| 2026-04-15 14:23 | 48.41644 | 8.31818 | 35204 ft | 466 kts | 181° |
| 2026-04-15 14:23 | 48.35152 | 8.31896 | 35202 ft | 466 kts | 181° |
| 2026-04-15 14:24 | 48.28661 | 8.31974 | 35192 ft | 466 kts | 181° |
| 2026-04-15 14:24 | 48.22215 | 8.32055 | 35193 ft | 467 kts | 181° |
| 2026-04-15 14:25 | 48.15735 | 8.32428 | 35193 ft | 468 kts | 172° |
| 2026-04-15 14:25 | 48.09305 | 8.33999 | 35187 ft | 468 kts | 172° |
| 2026-04-15 14:26 | 48.02865 | 8.35554 | 35193 ft | 468 kts | 172° |
| 2026-04-15 14:26 | 47.96468 | 8.37096 | 35199 ft | 469 kts | 172° |
| 2026-04-15 14:27 | 47.90035 | 8.38645 | 35189 ft | 469 kts | 172° |
| 2026-04-15 14:27 | 47.83586 | 8.40192 | 35195 ft | 469 kts | 172° |
| 2026-04-15 14:28 | 47.77136 | 8.41743 | 35205 ft | 469 kts | 172° |
| 2026-04-15 14:28 | 47.70737 | 8.43272 | 35215 ft | 469 kts | 171° |
| 2026-04-15 14:29 | 47.64264 | 8.44610 | 35203 ft | 471 kts | 174° |
| 2026-04-15 14:29 | 47.57735 | 8.45496 | 35205 ft | 471 kts | 176° |
| 2026-04-15 14:30 | 47.51188 | 8.46304 | 35206 ft | 472 kts | 175° |
| 2026-04-15 14:30 | 47.44696 | 8.47219 | 35204 ft | 472 kts | 174° |
| 2026-04-15 14:31 | 47.38150 | 8.48207 | 35211 ft | 473 kts | 174° |
| 2026-04-15 14:31 | 47.31605 | 8.49189 | 35211 ft | 473 kts | 174° |
| 2026-04-15 14:32 | 47.25054 | 8.50151 | 35203 ft | 473 kts | 174° |
| 2026-04-15 14:32 | 47.18549 | 8.51097 | 35205 ft | 473 kts | 174° |
| 2026-04-15 14:33 | 47.11999 | 8.52041 | 35207 ft | 473 kts | 174° |
| 2026-04-15 14:33 | 47.05443 | 8.52992 | 35193 ft | 473 kts | 174° |
| 2026-04-15 14:34 | 46.98888 | 8.53941 | 35187 ft | 473 kts | 174° |
| 2026-04-15 14:34 | 46.92326 | 8.54892 | 35176 ft | 474 kts | 174° |
| 2026-04-15 14:35 | 46.85798 | 8.55829 | 35176 ft | 475 kts | 174° |
| 2026-04-15 14:35 | 46.79233 | 8.56760 | 35168 ft | 474 kts | 174° |
| 2026-04-15 14:36 | 46.72660 | 8.57702 | 35159 ft | 475 kts | 174° |
| 2026-04-15 14:36 | 46.66116 | 8.58641 | 35150 ft | 476 kts | 174° |
| 2026-04-15 14:37 | 46.59524 | 8.59582 | 35132 ft | 477 kts | 174° |
| 2026-04-15 14:37 | 46.52925 | 8.60515 | 35126 ft | 477 kts | 174° |
| 2026-04-15 14:38 | 46.46314 | 8.61452 | 35136 ft | 477 kts | 174° |
| 2026-04-15 14:38 | 46.39705 | 8.62396 | 35125 ft | 478 kts | 174° |
| 2026-04-15 14:39 | 46.33082 | 8.63325 | 35119 ft | 478 kts | 174° |
| 2026-04-15 14:39 | 46.26510 | 8.64239 | 35115 ft | 478 kts | 174° |
| 2026-04-15 14:40 | 46.19881 | 8.65165 | 35112 ft | 479 kts | 173° |
| 2026-04-15 14:40 | 46.13252 | 8.66195 | 35113 ft | 479 kts | 168° |
| 2026-04-15 14:41 | 46.07027 | 8.69162 | 35108 ft | 473 kts | 150° |
| 2026-04-15 14:41 | 46.01265 | 8.73714 | 35101 ft | 473 kts | 148° |
| 2026-04-15 14:42 | 45.95479 | 8.78243 | 35115 ft | 474 kts | 148° |
| 2026-04-15 14:42 | 45.89668 | 8.82735 | 34984 ft | 475 kts | 148° |
| 2026-04-15 14:42 | 45.86765 | 8.84980 | 34744 ft | 475 kts | 148° |
| 2026-04-15 14:43 | 45.83856 | 8.87238 | 34508 ft | 475 kts | 148° |
| 2026-04-15 14:43 | 45.80955 | 8.89492 | 34260 ft | 475 kts | 148° |
| 2026-04-15 14:43 | 45.78083 | 8.91727 | 34029 ft | 476 kts | 148° |
| 2026-04-15 14:43 | 45.75169 | 8.93992 | 33771 ft | 476 kts | 148° |
| 2026-04-15 14:44 | 45.72252 | 8.96252 | 33497 ft | 477 kts | 148° |
| 2026-04-15 14:44 | 45.69332 | 8.98488 | 33239 ft | 478 kts | 151° |
| 2026-04-15 14:44 | 45.66232 | 9.00294 | 32975 ft | 481 kts | 160° |
| 2026-04-15 14:44 | 45.62981 | 9.01384 | 32711 ft | 481 kts | 170° |
| 2026-04-15 14:45 | 45.59644 | 9.01766 | 32184 ft | 481 kts | 179° |
| 2026-04-15 14:45 | 45.56304 | 9.01539 | 31633 ft | 479 kts | 182° |
| 2026-04-15 14:45 | 45.52982 | 9.01260 | 31075 ft | 478 kts | 182° |
| 2026-04-15 14:45 | 45.49719 | 9.00997 | 30536 ft | 476 kts | 182° |
| 2026-04-15 14:46 | 45.46421 | 9.00742 | 29947 ft | 474 kts | 182° |
| 2026-04-15 14:46 | 45.43129 | 9.00497 | 29390 ft | 470 kts | 182° |
| 2026-04-15 14:46 | 45.39875 | 9.00259 | 28847 ft | 467 kts | 181° |
| 2026-04-15 14:46 | 45.36641 | 9.00025 | 28308 ft | 463 kts | 182° |
| 2026-04-15 14:47 | 45.33439 | 8.99790 | 27768 ft | 460 kts | 182° |
| 2026-04-15 14:47 | 45.30254 | 8.99552 | 27253 ft | 456 kts | 182° |
| 2026-04-15 14:47 | 45.27100 | 8.99314 | 26739 ft | 453 kts | 182° |
| 2026-04-15 14:47 | 45.23963 | 8.99077 | 26240 ft | 449 kts | 182° |
| 2026-04-15 14:48 | 45.20903 | 8.98850 | 25763 ft | 445 kts | 182° |
| 2026-04-15 14:48 | 45.17829 | 8.98621 | 25281 ft | 441 kts | 182° |
| 2026-04-15 14:48 | 45.14777 | 8.98391 | 24807 ft | 437 kts | 182° |
| 2026-04-15 14:48 | 45.11758 | 8.98162 | 24336 ft | 433 kts | 182° |
| 2026-04-15 14:49 | 45.08759 | 8.97934 | 23858 ft | 430 kts | 182° |
| 2026-04-15 14:49 | 45.05785 | 8.97710 | 23333 ft | 426 kts | 182° |
| 2026-04-15 14:49 | 45.02853 | 8.97490 | 22852 ft | 421 kts | 182° |
| 2026-04-15 14:49 | 44.99979 | 8.97275 | 22389 ft | 415 kts | 182° |
| 2026-04-15 14:50 | 44.97112 | 8.97094 | 21915 ft | 410 kts | 179° |
| 2026-04-15 14:50 | 44.94297 | 8.97453 | 21444 ft | 403 kts | 170° |
| 2026-04-15 14:50 | 44.91537 | 8.98047 | 20960 ft | 400 kts | 170° |
| 2026-04-15 14:50 | 44.88801 | 8.98628 | 20479 ft | 396 kts | 171° |
| 2026-04-15 14:51 | 44.86081 | 8.99199 | 19991 ft | 394 kts | 171° |
| 2026-04-15 14:51 | 44.83386 | 8.99757 | 19514 ft | 391 kts | 170° |
| 2026-04-15 14:51 | 44.80703 | 9.00311 | 19025 ft | 388 kts | 171° |
| 2026-04-15 14:51 | 44.78036 | 9.00864 | 18552 ft | 386 kts | 171° |
| 2026-04-15 14:52 | 44.75426 | 9.01407 | 18039 ft | 383 kts | 171° |
| 2026-04-15 14:52 | 44.72799 | 9.01954 | 17564 ft | 380 kts | 171° |
| 2026-04-15 14:52 | 44.70199 | 9.02497 | 17102 ft | 376 kts | 171° |
| 2026-04-15 14:52 | 44.67631 | 9.03035 | 16641 ft | 373 kts | 171° |
| 2026-04-15 14:53 | 44.65062 | 9.03571 | 16185 ft | 370 kts | 171° |
| 2026-04-15 14:53 | 44.62531 | 9.04095 | 15743 ft | 367 kts | 171° |
| 2026-04-15 14:53 | 44.60013 | 9.04615 | 15304 ft | 365 kts | 171° |
| 2026-04-15 14:53 | 44.57507 | 9.05132 | 14854 ft | 362 kts | 171° |
| 2026-04-15 14:54 | 44.55060 | 9.05635 | 14426 ft | 360 kts | 171° |
| 2026-04-15 14:54 | 44.52588 | 9.06143 | 13983 ft | 357 kts | 171° |
| 2026-04-15 14:54 | 44.50190 | 9.06635 | 13501 ft | 339 kts | 171° |
| 2026-04-15 14:54 | 44.47869 | 9.06913 | 12999 ft | 335 kts | 184° |
| 2026-04-15 14:55 | 44.45638 | 9.06109 | 12555 ft | 332 kts | 207° |
| 2026-04-15 14:55 | 44.43805 | 9.04224 | 12261 ft | 327 kts | 229° |
| 2026-04-15 14:55 | 44.42593 | 9.01570 | 11795 ft | 324 kts | 250° |
| 2026-04-15 14:55 | 44.42166 | 8.98514 | 11348 ft | 320 kts | 270° |
| 2026-04-15 14:56 | 44.42093 | 8.95400 | 10890 ft | 320 kts | 270° |
| 2026-04-15 14:56 | 44.42015 | 8.92333 | 10454 ft | 320 kts | 270° |
| 2026-04-15 14:56 | 44.41931 | 8.89254 | 10250 ft | 310 kts | 270° |
| 2026-04-15 14:56 | 44.41801 | 8.86294 | 10053 ft | 303 kts | 262° |
| 2026-04-15 14:57 | 44.41149 | 8.83508 | 9676 ft | 303 kts | 243° |
| 2026-04-15 14:57 | 44.39906 | 8.81173 | 9313 ft | 300 kts | 223° |
| 2026-04-15 14:57 | 44.38226 | 8.79487 | 8958 ft | 297 kts | 209° |
| 2026-04-15 14:57 | 44.36444 | 8.78047 | 8587 ft | 295 kts | 209° |
| 2026-04-15 14:58 | 44.34697 | 8.76629 | 8234 ft | 292 kts | 210° |
| 2026-04-15 14:58 | 44.32948 | 8.75205 | 7891 ft | 290 kts | 210° |
| 2026-04-15 14:58 | 44.31211 | 8.73790 | 7535 ft | 288 kts | 210° |
| 2026-04-15 14:58 | 44.29503 | 8.72394 | 7200 ft | 279 kts | 212° |
| 2026-04-15 14:59 | 44.28126 | 8.70641 | 6765 ft | 263 kts | 240° |
| 2026-04-15 14:59 | 44.27499 | 8.68367 | 6364 ft | 242 kts | 268° |
| 2026-04-15 14:59 | 44.27597 | 8.66142 | 5988 ft | 221 kts | 291° |
| 2026-04-15 14:59 | 44.28000 | 8.64104 | 5676 ft | 217 kts | 291° |
| 2026-04-15 15:00 | 44.28419 | 8.62085 | 5374 ft | 214 kts | 298° |
| 2026-04-15 15:00 | 44.29272 | 8.60542 | 5116 ft | 200 kts | 329° |
| 2026-04-15 15:00 | 44.30512 | 8.59853 | 4943 ft | 187 kts | 355° |
| 2026-04-15 15:00 | 44.31758 | 8.60047 | 4546 ft | 176 kts | 17° |
| 2026-04-15 15:01 | 44.32925 | 8.60495 | 4236 ft | 172 kts | 16° |
| 2026-04-15 15:01 | 44.34057 | 8.60939 | 3944 ft | 167 kts | 21° |
| 2026-04-15 15:01 | 44.35050 | 8.61745 | 3681 ft | 164 kts | 38° |
| 2026-04-15 15:01 | 44.35791 | 8.62938 | 3435 ft | 162 kts | 56° |
| 2026-04-15 15:02 | 44.36340 | 8.64271 | 3190 ft | 159 kts | 57° |
| 2026-04-15 15:02 | 44.36892 | 8.65602 | 2957 ft | 157 kts | 56° |
| 2026-04-15 15:02 | 44.37440 | 8.66927 | 2734 ft | 157 kts | 56° |
| 2026-04-15 15:02 | 44.37985 | 8.68242 | 2499 ft | 154 kts | 58° |
| 2026-04-15 15:03 | 44.38516 | 8.69538 | 2275 ft | 154 kts | 57° |
| 2026-04-15 15:03 | 44.39043 | 8.70824 | 2042 ft | 151 kts | 56° |
| 2026-04-15 15:03 | 44.39566 | 8.72099 | 1829 ft | 153 kts | 55° |
| 2026-04-15 15:03 | 44.40089 | 8.73379 | 1604 ft | 146 kts | 55° |
| 2026-04-15 15:04 | 44.40585 | 8.74596 | 1392 ft | 141 kts | 54° |
| 2026-04-15 15:04 | 44.41043 | 8.75825 | 1170 ft | 143 kts | 64° |
| 2026-04-15 15:04 | 44.41422 | 8.77091 | 974 ft | 141 kts | 63° |
| 2026-04-15 15:04 | 44.41787 | 8.78362 | 754 ft | 144 kts | 63° |
| 2026-04-15 15:05 | 44.41990 | 8.79747 | 564 ft | 152 kts | 87° |
| 2026-04-15 15:05 | 44.41777 | 8.81196 | 253 ft | 151 kts | 101° |
| 2026-04-15 15:05 | 44.41505 | 8.82613 | 67 ft | 150 kts | 103° |
| 2026-04-15 15:05 | 44.41244 | 8.83943 | 20 ft | 119 kts | 105° |
| 2026-04-15 15:06 | 44.41089 | 8.84830 | 18 ft | 10 kts | 58° |
| 2026-04-15 15:06 | 44.41150 | 8.84883 | 15 ft | 10 kts | 21° |
| 2026-04-15 15:06 | 44.41188 | 8.84901 | 15 ft | 6 kts | 17° |
| 2026-04-15 15:07 | 44.41215 | 8.84912 | 15 ft | 3 kts | 16° |
| 2026-04-15 15:07 | 44.41226 | 8.84916 | 16 ft | 0 kts | 16° |
| 2026-04-15 15:07 | 44.41231 | 8.84918 | 16 ft | 3 kts | 16° |
| 2026-04-15 15:07 | 44.41238 | 8.84921 | 17 ft | 0 kts | 16° |
| 2026-04-15 15:08 | 44.41240 | 8.84922 | 17 ft | 0 kts | 16° |
| 2026-04-15 15:08 | 44.41243 | 8.84923 | 17 ft | 3 kts | 16° |
| 2026-04-15 15:08 | 44.41296 | 8.84943 | 18 ft | 7 kts | 15° |
| 2026-04-15 15:08 | 44.41339 | 8.84986 | 18 ft | 7 kts | 68° |
| 2026-04-15 15:09 | 44.41369 | 8.85014 | 18 ft | 5 kts | 15° |
| 2026-04-15 15:09 | 44.41403 | 8.85027 | 18 ft | 3 kts | 15° |
| 2026-04-15 15:09 | 44.41415 | 8.85032 | 21 ft | 2 kts | 15° |
| 2026-04-15 15:09 | 44.41418 | 8.85033 | 20 ft | 0 kts | 15° |